Time;durP1;ratioP1;P1;durP2;ratioP2;P2;SDS_P1;SDS_P2;PMS_P1;PMS_P2;Temp;Humidity;BMP_temperature;BMP_pressure;BME280_temperature;BME280_humidity;BME280_pressure;Samples;Min_cycle;Max_cycle;Signal;HPM_P1;HPM_P2
2021/06/02 00:01:56;;;;;;;5.13;2.08;;;9.60;99.90;;;;;;5043396;28;20069;-71
2021/06/02 00:04:34;;;;;;;2.33;2.08;;;9.50;99.90;;;;;;5033115;28;20151;-71
2021/06/02 00:07:02;;;;;;;2.95;1.83;;;9.50;99.90;;;;;;5040719;28;20077;-71
2021/06/02 00:09:29;;;;;;;2.10;1.80;;;9.50;99.90;;;;;;5040415;28;20559;-71
2021/06/02 00:11:56;;;;;;;2.38;2.17;;;9.50;99.90;;;;;;5037571;28;20085;-71
2021/06/02 00:14:23;;;;;;;10.32;2.40;;;9.60;99.90;;;;;;5039657;28;20131;-71
2021/06/02 00:16:51;;;;;;;4.70;2.30;;;9.60;99.90;;;;;;5041374;28;20588;-71
2021/06/02 00:19:17;;;;;;;3.25;2.15;;;9.60;99.90;;;;;;5039023;28;20101;-71
2021/06/02 00:21:43;;;;;;;4.63;1.88;;;9.60;99.90;;;;;;5037077;28;20123;-71
2021/06/02 00:24:09;;;;;;;2.17;1.90;;;9.70;99.90;;;;;;5045105;28;20079;-71
2021/06/02 00:26:36;;;;;;;3.08;2.13;;;9.60;99.90;;;;;;5040345;28;20081;-71
2021/06/02 00:29:06;;;;;;;2.17;1.95;;;9.60;99.90;;;;;;5039378;28;20128;-70
2021/06/02 00:31:38;;;;;;;3.40;2.05;;;9.70;99.90;;;;;;5038751;28;20123;-70
2021/06/02 00:34:05;;;;;;;3.70;2.10;;;9.70;99.90;;;;;;5040149;28;20077;-71
2021/06/02 00:36:31;;;;;;;3.08;2.50;;;9.70;99.90;;;;;;5030894;28;20144;-71
2021/06/02 00:38:58;;;;;;;4.57;2.50;;;9.70;99.90;;;;;;5038019;28;20172;-71
2021/06/02 00:41:24;;;;;;;4.57;2.00;;;9.70;99.90;;;;;;5040817;28;20069;-71
2021/06/02 00:43:50;;;;;;;3.15;2.70;;;9.70;99.90;;;;;;5039825;28;20530;-71
2021/06/02 00:46:18;;;;;;;4.03;2.60;;;9.60;99.90;;;;;;5038312;28;20080;-72
2021/06/02 00:48:44;;;;;;;2.47;2.08;;;9.50;99.90;;;;;;5037455;28;20141;-71
2021/06/02 00:51:11;;;;;;;13.23;2.50;;;9.70;99.90;;;;;;5032900;28;20086;-71
2021/06/02 00:53:36;;;;;;;2.30;2.10;;;9.60;99.90;;;;;;5039439;28;20080;-70
2021/06/02 00:56:07;;;;;;;3.22;2.50;;;9.70;99.90;;;;;;5036266;28;20078;-71
2021/06/02 00:58:55;;;;;;;3.55;2.08;;;9.60;99.90;;;;;;5042417;28;20086;-71
2021/06/02 01:01:21;;;;;;;2.67;2.10;;;9.70;99.90;;;;;;5037890;28;20586;-71
2021/06/02 01:03:49;;;;;;;3.88;2.35;;;9.60;99.90;;;;;;5019644;28;20157;-71
2021/06/02 01:06:15;;;;;;;4.20;2.50;;;9.70;99.90;;;;;;5038457;28;20073;-71
2021/06/02 01:08:44;;;;;;;2.22;2.03;;;9.80;99.90;;;;;;5038894;28;20093;-71
2021/06/02 01:11:10;;;;;;;3.88;2.47;;;9.80;99.90;;;;;;5030908;28;20070;-71
2021/06/02 01:13:40;;;;;;;4.50;2.53;;;9.80;99.90;;;;;;5038308;28;20450;-71
2021/06/02 01:16:08;;;;;;;3.00;1.90;;;9.90;99.90;;;;;;5037422;28;20094;-71
2021/06/02 01:18:34;;;;;;;6.40;2.35;;;9.80;99.90;;;;;;5036353;28;20601;-71
2021/06/02 01:21:02;;;;;;;2.63;1.98;;;9.90;99.90;;;;;;5038027;28;20080;-71
2021/06/02 01:23:28;;;;;;;2.55;1.70;;;9.80;99.90;;;;;;5039483;28;20440;-71
2021/06/02 01:25:54;;;;;;;3.78;2.20;;;9.80;99.90;;;;;;5037038;28;20077;-71
2021/06/02 01:28:19;;;;;;;3.85;1.90;;;9.70;99.90;;;;;;5024005;28;20159;-71
2021/06/02 01:30:45;;;;;;;3.55;2.25;;;9.70;99.90;;;;;;5038278;28;20093;-71
2021/06/02 01:33:28;;;;;;;3.45;2.15;;;9.80;99.90;;;;;;5039320;28;20070;-71
2021/06/02 01:36:05;;;;;;;2.78;2.00;;;9.80;99.90;;;;;;5040304;28;20076;-71
2021/06/02 01:38:49;;;;;;;3.47;1.83;;;9.80;99.90;;;;;;5041676;28;20105;-72
2021/06/02 01:41:23;;;;;;;3.17;2.47;;;9.70;99.90;;;;;;5047856;28;20537;-72
2021/06/02 01:44:27;;;;;;;3.88;2.30;;;9.70;99.90;;;;;;5038216;28;20089;-72
2021/06/02 01:46:58;;;;;;;3.60;2.40;;;9.60;99.90;;;;;;5039433;28;20090;-73
2021/06/02 01:49:57;;;;;;;5.65;2.80;;;9.50;99.90;;;;;;5036487;28;20108;-71
2021/06/02 01:53:04;;;;;;;6.18;1.83;;;9.40;99.90;;;;;;5035109;28;20103;-72
2021/06/02 01:56:10;;;;;;;3.38;2.22;;;9.30;99.90;;;;;;4989734;28;20086;-71
2021/06/02 01:59:12;;;;;;;;;;;9.30;99.90;;;;;;5037989;28;20097;-71
2021/06/02 02:01:53;;;;;;;2.63;2.42;;;9.30;99.90;;;;;;5037663;28;19967;-71
2021/06/02 02:04:46;;;;;;;4.38;2.35;;;9.50;99.90;;;;;;5037797;28;20066;-71
2021/06/02 02:07:36;;;;;;;3.00;2.60;;;9.40;99.90;;;;;;5040137;28;20078;-71
2021/06/02 02:10:07;;;;;;;3.75;2.58;;;9.30;99.90;;;;;;5036140;28;20164;-70
2021/06/02 02:12:44;;;;;;;3.60;2.13;;;9.40;99.90;;;;;;5035279;28;20069;-71
2021/06/02 02:15:36;;;;;;;3.95;2.10;;;9.30;99.90;;;;;;5036922;28;20406;-70
2021/06/02 02:18:30;;;;;;;4.32;2.60;;;9.30;99.90;;;;;;5041962;28;20104;-70
2021/06/02 02:21:14;;;;;;;2.38;2.10;;;9.30;99.90;;;;;;5036204;28;20074;-70
2021/06/02 02:23:49;;;;;;;3.08;2.13;;;9.20;99.90;;;;;;5039817;28;20572;-70
2021/06/02 02:26:23;;;;;;;3.30;2.40;;;9.20;99.90;;;;;;5037323;28;20085;-71
2021/06/02 02:29:18;;;;;;;2.85;2.13;;;9.30;99.90;;;;;;5037659;28;20095;-71
2021/06/02 02:32:09;;;;;;;3.83;2.20;;;9.30;99.90;;;;;;5033230;28;20085;-70
2021/06/02 02:35:28;;;;;;;2.47;2.28;;;9.30;99.90;;;;;;5027498;28;20678;-71
2021/06/02 02:38:17;;;;;;;4.43;2.60;;;9.20;99.90;;;;;;4963470;28;20198;-71
2021/06/02 02:40:49;;;;;;;3.15;1.98;;;9.10;99.90;;;;;;4964627;28;20111;-71
2021/06/02 02:43:31;;;;;;;3.10;1.80;;;8.90;99.90;;;;;;5019755;28;20089;-71
2021/06/02 02:46:15;;;;;;;4.43;2.72;;;8.70;99.90;;;;;;5037265;28;20153;-71
2021/06/02 02:48:55;;;;;;;3.13;2.23;;;8.70;99.90;;;;;;5037470;28;20553;-71
2021/06/02 02:51:32;;;;;;;4.93;2.50;;;8.80;99.90;;;;;;5041493;28;20065;-71
2021/06/02 02:54:10;;;;;;;3.25;2.70;;;8.80;99.90;;;;;;5041212;28;20151;-72
2021/06/02 02:57:01;;;;;;;3.38;2.63;;;8.80;99.90;;;;;;5033162;28;20215;-71
2021/06/02 02:59:30;;;;;;;3.45;2.40;;;8.80;99.90;;;;;;5041729;28;20168;-72
2021/06/02 03:02:16;;;;;;;3.08;2.22;;;8.90;99.90;;;;;;5038094;28;20085;-72
2021/06/02 03:04:52;;;;;;;3.42;2.75;;;8.90;99.90;;;;;;5034002;28;20127;-71
2021/06/02 03:07:19;;;;;;;4.32;2.63;;;8.80;99.90;;;;;;5037609;28;20083;-71
2021/06/02 03:09:51;;;;;;;2.78;2.50;;;8.90;99.90;;;;;;5036802;28;20105;-72
2021/06/02 03:12:57;;;;;;;4.60;2.92;;;8.90;99.90;;;;;;5017205;28;20161;-72
2021/06/02 03:15:47;;;;;;;3.55;2.63;;;8.80;99.90;;;;;;5037021;28;20096;-71
2021/06/02 03:18:22;;;;;;;5.05;2.70;;;8.90;99.90;;;;;;5039247;28;20117;-71
2021/06/02 03:21:15;;;;;;;6.25;2.45;;;8.70;99.90;;;;;;5036995;28;20091;-70
2021/06/02 03:24:01;;;;;;;2.40;2.20;;;8.70;99.90;;;;;;5038942;28;20157;-71
2021/06/02 03:26:30;;;;;;;4.25;2.28;;;8.60;99.90;;;;;;5041425;28;20160;-72
2021/06/02 03:29:14;;;;;;;3.22;2.40;;;8.70;99.90;;;;;;5030157;28;20093;-72
2021/06/02 03:32:02;;;;;;;4.88;2.17;;;8.70;99.90;;;;;;5041681;28;20078;-71
2021/06/02 03:34:29;;;;;;;4.75;3.00;;;8.70;99.90;;;;;;5041875;28;20070;-72
2021/06/02 03:37:04;;;;;;;3.13;2.25;;;8.90;99.90;;;;;;5041488;28;20151;-72
2021/06/02 03:39:39;;;;;;;10.13;3.17;;;8.60;99.90;;;;;;5042886;28;20143;-72
2021/06/02 03:42:44;;;;;;;2.85;2.30;;;8.70;99.90;;;;;;5039115;28;20077;-72
2021/06/02 03:45:31;;;;;;;4.28;2.78;;;8.80;99.90;;;;;;5033676;28;20092;-71
2021/06/02 03:48:09;;;;;;;3.33;2.30;;;8.70;99.90;;;;;;5039200;28;20139;-71
2021/06/02 03:51:03;;;;;;;3.63;2.38;;;8.70;99.90;;;;;;5039693;28;20132;-71
2021/06/02 03:53:50;;;;;;;4.05;2.25;;;8.60;99.90;;;;;;5038793;28;20066;-71
2021/06/02 03:56:35;;;;;;;3.80;2.45;;;8.50;99.90;;;;;;5038590;28;20094;-71
2021/06/02 03:59:16;;;;;;;5.28;2.78;;;8.60;99.90;;;;;;5037570;28;20112;-72
2021/06/02 04:01:52;;;;;;;4.88;2.40;;;8.70;99.90;;;;;;5039115;28;20062;-71
2021/06/02 04:04:55;;;;;;;6.55;3.22;;;8.80;99.90;;;;;;5039236;28;20073;-72
2021/06/02 04:07:44;;;;;;;5.15;2.60;;;8.90;99.90;;;;;;5039731;28;20073;-71
2021/06/02 04:10:14;;;;;;;4.00;2.60;;;9.10;99.90;;;;;;5039298;28;20495;-70
2021/06/02 04:13:03;;;;;;;5.68;3.70;;;9.10;99.90;;;;;;5040918;28;20078;-71
2021/06/02 04:15:30;;;;;;;3.17;2.15;;;9.10;99.90;;;;;;5041671;28;20170;-71
2021/06/02 04:17:56;;;;;;;4.70;2.38;;;9.10;99.90;;;;;;5038489;28;20090;-71
2021/06/02 04:20:21;;;;;;;8.13;3.28;;;9.10;99.90;;;;;;5042531;28;20074;-71
2021/06/02 04:22:49;;;;;;;3.38;2.40;;;9.20;99.90;;;;;;5040306;28;20108;-71
2021/06/02 04:25:16;;;;;;;4.75;3.80;;;9.30;99.90;;;;;;5041084;28;20089;-71
2021/06/02 04:27:47;;;;;;;3.30;3.00;;;9.40;99.90;;;;;;5040098;28;20074;-71
2021/06/02 04:30:15;;;;;;;4.28;2.85;;;9.30;99.90;;;;;;5040066;28;20193;-71
2021/06/02 04:32:43;;;;;;;4.72;2.92;;;9.40;99.90;;;;;;5038933;28;20157;-71
2021/06/02 04:35:14;;;;;;;5.97;2.75;;;9.40;99.90;;;;;;5040650;28;20077;-73
2021/06/02 04:37:40;;;;;;;5.30;2.50;;;9.50;99.90;;;;;;5032661;28;20449;-72
2021/06/02 04:40:07;;;;;;;4.05;3.15;;;9.50;99.90;;;;;;5030323;28;20077;-72
2021/06/02 04:42:38;;;;;;;3.58;2.72;;;9.60;99.90;;;;;;5030615;28;20206;-72
2021/06/02 04:45:12;;;;;;;4.20;2.85;;;9.50;99.90;;;;;;5030973;28;20073;-72
2021/06/02 04:47:41;;;;;;;3.85;2.97;;;9.50;99.90;;;;;;5043449;28;20072;-72
2021/06/02 04:50:18;;;;;;;5.40;2.60;;;9.70;99.90;;;;;;5012724;28;20082;-73
2021/06/02 04:53:12;;;;;;;5.38;3.22;;;9.80;99.90;;;;;;5037707;28;20086;-72
2021/06/02 04:55:55;;;;;;;4.20;2.83;;;9.90;99.90;;;;;;5037965;28;20102;-72
2021/06/02 04:59:04;;;;;;;4.38;2.97;;;10.10;99.90;;;;;;5036567;28;20089;-72
2021/06/02 05:02:01;;;;;;;3.25;2.83;;;10.10;99.90;;;;;;5035641;28;20541;-72
2021/06/02 05:04:46;;;;;;;8.40;3.05;;;10.30;99.90;;;;;;5030222;28;20078;-71
2021/06/02 05:07:59;;;;;;;3.83;3.22;;;10.40;99.90;;;;;;5042972;28;20532;-72
2021/06/02 05:10:40;;;;;;;3.70;2.63;;;10.60;99.90;;;;;;5031752;28;20112;-72
2021/06/02 05:13:12;;;;;;;4.65;2.97;;;10.70;99.90;;;;;;5031569;28;20076;-72
2021/06/02 05:16:08;;;;;;;5.60;3.22;;;10.90;99.90;;;;;;5034728;28;20160;-72
2021/06/02 05:18:58;;;;;;;6.82;2.90;;;11.10;99.90;;;;;;5029866;28;20098;-72
2021/06/02 05:24:15;;;;;;;7.68;3.30;;;11.30;99.90;;;;;;5029836;28;20089;-72
2021/06/02 05:27:30;;;;;;;4.93;3.42;;;11.40;99.90;;;;;;5029679;28;20155;-71
2021/06/02 05:30:15;;;;;;;4.23;3.20;;;11.50;99.90;;;;;;5038429;28;20097;-72
2021/06/02 05:33:20;;;;;;;5.07;3.30;;;11.80;99.90;;;;;;5029332;28;20066;-72
2021/06/02 05:36:23;;;;;;;5.75;3.42;;;11.90;99.90;;;;;;4970661;28;20098;-72
2021/06/02 05:39:20;;;;;;;7.43;3.60;;;12.00;99.90;;;;;;5030317;28;20500;-72
2021/06/02 05:41:54;;;;;;;5.82;3.22;;;12.20;99.90;;;;;;5030146;28;20081;-72
2021/06/02 05:45:14;;;;;;;6.55;3.40;;;12.20;99.90;;;;;;5030466;28;20073;-72
2021/06/02 05:48:17;;;;;;;4.15;3.60;;;12.40;99.90;;;;;;5016990;28;20069;-72
2021/06/02 05:51:00;;;;;;;5.20;3.75;;;12.50;99.90;;;;;;5033062;28;20533;-73
2021/06/02 05:54:06;;;;;;;5.15;3.92;;;12.50;99.90;;;;;;5011565;28;20146;-72
2021/06/02 05:56:52;;;;;;;3.90;3.50;;;12.70;99.90;;;;;;5028645;28;20116;-72
2021/06/02 05:59:56;;;;;;;6.93;3.05;;;12.70;99.90;;;;;;5034449;28;20093;-72
2021/06/02 06:03:06;;;;;;;5.25;3.65;;;12.80;99.90;;;;;;4943451;28;20075;-72
2021/06/02 06:05:57;;;;;;;4.50;3.30;;;13.00;99.90;;;;;;5027933;28;20119;-72
2021/06/02 06:08:28;;;;;;;5.60;3.13;;;13.20;99.90;;;;;;5029292;28;20185;-72
2021/06/02 06:11:18;;;;;;;7.18;2.90;;;13.20;99.90;;;;;;5029947;28;20066;-74
2021/06/02 06:14:22;;;;;;;6.05;3.50;;;13.30;99.90;;;;;;5011805;28;20082;-72
2021/06/02 06:16:47;;;;;;;4.40;2.72;;;13.50;99.90;;;;;;5028588;28;20597;-72
2021/06/02 06:19:25;;;;;;;3.85;3.03;;;13.50;99.90;;;;;;5029702;28;20118;-72
2021/06/02 06:22:18;;;;;;;4.70;3.22;;;13.60;99.90;;;;;;5028755;28;20084;-72
2021/06/02 06:24:53;;;;;;;4.60;2.80;;;13.70;99.90;;;;;;5031488;28;20081;-72
2021/06/02 06:28:10;;;;;;;4.45;2.55;;;13.90;99.90;;;;;;5033482;28;20069;-72
2021/06/02 06:30:39;;;;;;;6.35;2.47;;;14.00;99.90;;;;;;4979658;28;20807;-72
2021/06/02 06:33:12;;;;;;;4.38;2.50;;;14.20;99.90;;;;;;5029759;28;20173;-72
2021/06/02 06:35:39;;;;;;;2.85;2.17;;;14.30;99.90;;;;;;5027879;28;20105;-72
2021/06/02 06:38:23;;;;;;;2.90;2.30;;;14.50;99.90;;;;;;5028240;28;20573;-73
2021/06/02 06:40:52;;;;;;;4.55;2.05;;;14.60;99.90;;;;;;5029826;28;20442;-72
2021/06/02 06:43:20;;;;;;;4.63;2.20;;;14.80;99.90;;;;;;5027766;28;20104;-72
2021/06/02 06:45:45;;;;;;;3.35;2.15;;;15.00;99.90;;;;;;5027684;28;20554;-72
2021/06/02 06:48:21;;;;;;;8.55;2.45;;;14.90;99.90;;;;;;5038310;28;20102;-72
2021/06/02 06:50:50;;;;;;;2.63;2.30;;;15.00;99.90;;;;;;5043902;28;20066;-73
2021/06/02 06:53:16;;;;;;;5.53;2.25;;;15.10;99.90;;;;;;5042711;28;20100;-72
2021/06/02 06:55:44;;;;;;;3.40;2.22;;;15.20;99.90;;;;;;5042453;28;20085;-72
2021/06/02 06:58:10;;;;;;;6.78;3.30;;;15.30;99.90;;;;;;5045673;28;20102;-72
2021/06/02 07:00:36;;;;;;;3.00;2.22;;;15.30;99.90;;;;;;5042690;28;20070;-72
2021/06/02 07:03:02;;;;;;;3.72;2.15;;;15.20;99.90;;;;;;5045252;28;20080;-72
2021/06/02 07:05:28;;;;;;;3.92;2.97;;;15.40;99.90;;;;;;5035683;28;20074;-72
2021/06/02 07:07:55;;;;;;;3.03;2.22;;;15.50;99.90;;;;;;5031968;28;20102;-72
2021/06/02 07:10:22;;;;;;;6.43;2.85;;;15.60;99.90;;;;;;5033403;28;20128;-72
2021/06/02 07:12:49;;;;;;;3.38;2.72;;;15.80;99.90;;;;;;5015529;28;20085;-73
2021/06/02 07:15:16;;;;;;;4.03;2.58;;;15.90;99.90;;;;;;5048387;28;20082;-72
2021/06/02 07:17:46;;;;;;;3.22;2.45;;;15.80;99.90;;;;;;5049476;28;20515;-73
2021/06/02 07:20:15;;;;;;;4.35;2.28;;;15.90;99.90;;;;;;5032602;28;20070;-72
2021/06/02 07:22:46;;;;;;;2.70;2.30;;;16.10;99.90;;;;;;5034768;28;20112;-72
2021/06/02 07:25:18;;;;;;;4.13;2.33;;;16.30;99.90;;;;;;5043787;28;20070;-72
2021/06/02 07:27:45;;;;;;;3.95;2.50;;;16.40;99.90;;;;;;5044650;28;20166;-73
2021/06/02 07:30:12;;;;;;;4.50;2.22;;;16.40;99.90;;;;;;5038728;28;20177;-72
2021/06/02 07:32:38;;;;;;;5.40;2.60;;;16.50;99.90;;;;;;5045227;28;20109;-72
2021/06/02 07:35:04;;;;;;;3.25;2.50;;;16.50;99.90;;;;;;5048505;28;20124;-72
2021/06/02 07:37:31;;;;;;;4.22;2.40;;;16.60;99.90;;;;;;5048638;28;20151;-72
2021/06/02 07:39:56;;;;;;;2.72;2.40;;;16.80;99.90;;;;;;5042461;28;20456;-72
2021/06/02 07:42:22;;;;;;;5.78;2.60;;;16.70;99.90;;;;;;5036742;28;20074;-74
2021/06/02 07:44:47;;;;;;;7.38;2.92;;;16.60;99.90;;;;;;5041935;28;20085;-73
2021/06/02 07:47:13;;;;;;;4.93;2.30;;;16.70;99.90;;;;;;5040350;28;20761;-72
2021/06/02 07:49:38;;;;;;;4.68;3.13;;;16.80;99.90;;;;;;5045355;28;20089;-72
2021/06/02 07:52:04;;;;;;;2.58;2.25;;;16.80;99.90;;;;;;5025394;28;20096;-73
2021/06/02 07:54:30;;;;;;;4.30;2.25;;;17.00;99.90;;;;;;5048473;28;20452;-73
2021/06/02 07:56:55;;;;;;;5.35;2.35;;;17.30;99.90;;;;;;5023929;28;20166;-73
2021/06/02 07:59:21;;;;;;;6.78;2.30;;;17.30;99.90;;;;;;5031219;28;20081;-73
2021/06/02 08:01:47;;;;;;;4.80;2.67;;;17.60;99.90;;;;;;5035800;28;20725;-75
2021/06/02 08:04:13;;;;;;;5.13;2.40;;;17.70;99.90;;;;;;5035502;28;20161;-74
2021/06/02 08:06:40;;;;;;;3.28;2.65;;;17.70;99.90;;;;;;5031075;28;20602;-74
2021/06/02 08:09:07;;;;;;;7.03;3.85;;;17.50;99.90;;;;;;5034436;28;20119;-74
2021/06/02 08:11:33;;;;;;;5.97;3.50;;;17.40;99.90;;;;;;5014862;28;20078;-74
2021/06/02 08:13:58;;;;;;;6.63;3.65;;;17.20;99.90;;;;;;5030334;28;20092;-74
2021/06/02 08:16:24;;;;;;;6.35;3.33;;;17.30;99.90;;;;;;5033920;28;20100;-73
2021/06/02 08:18:51;;;;;;;5.88;3.33;;;17.20;99.90;;;;;;5030671;28;20090;-74
2021/06/02 08:21:17;;;;;;;8.00;3.38;;;17.40;99.90;;;;;;5030875;28;20073;-74
2021/06/02 08:23:42;;;;;;;5.63;3.40;;;17.60;99.90;;;;;;5029968;28;20089;-73
2021/06/02 08:26:09;;;;;;;5.05;3.15;;;17.70;99.90;;;;;;5031076;28;20115;-74
2021/06/02 08:28:35;;;;;;;4.07;2.78;;;17.80;99.90;;;;;;5034232;28;20086;-74
2021/06/02 08:31:00;;;;;;;4.68;3.63;;;17.80;99.90;;;;;;5031926;28;20695;-73
2021/06/02 08:33:26;;;;;;;4.72;3.30;;;17.70;99.90;;;;;;5012890;28;20078;-73
2021/06/02 08:35:51;;;;;;;7.25;3.20;;;17.90;99.90;;;;;;5036120;28;20074;-77
2021/06/02 08:38:17;;;;;;;3.35;3.03;;;18.10;99.90;;;;;;5035244;28;20106;-76
2021/06/02 08:40:43;;;;;;;3.92;3.25;;;18.00;99.90;;;;;;5033317;28;20553;-78
2021/06/02 08:43:08;;;;;;;5.35;2.90;;;18.00;99.90;;;;;;5032582;28;20519;-73
2021/06/02 08:45:34;;;;;;;7.97;2.95;;;18.00;99.90;;;;;;5012309;28;20073;-77
2021/06/02 08:47:59;;;;;;;8.57;3.35;;;18.00;99.90;;;;;;5030511;28;20465;-73
2021/06/02 08:50:25;;;;;;;6.20;3.15;;;18.10;99.90;;;;;;5031588;28;20094;-72
2021/06/02 08:52:52;;;;;;;8.30;3.80;;;18.50;99.90;;;;;;5046944;28;20086;-72
2021/06/02 08:55:20;;;;;;;5.50;2.90;;;18.70;99.90;;;;;;5041660;28;20437;-72
2021/06/02 08:57:49;;;;;;;3.10;2.80;;;18.80;99.90;;;;;;5040792;28;20085;-72
2021/06/02 09:00:18;;;;;;;6.00;3.33;;;18.70;99.90;;;;;;5047163;28;20156;-72
2021/06/02 09:02:46;;;;;;;2.95;2.60;;;18.90;99.90;;;;;;5047389;28;20188;-72
2021/06/02 09:05:14;;;;;;;3.60;2.63;;;19.00;99.90;;;;;;5043156;28;20062;-72
2021/06/02 09:07:41;;;;;;;4.05;2.83;;;19.10;99.90;;;;;;5048172;28;20075;-72
2021/06/02 09:10:10;;;;;;;3.30;2.63;;;19.10;99.90;;;;;;5040258;28;21027;-72
2021/06/02 09:12:39;;;;;;;6.38;2.53;;;19.20;99.90;;;;;;5047690;28;20073;-72
2021/06/02 09:15:22;;;;;;;2.88;2.47;;;19.30;99.90;;;;;;5026945;28;20127;-72
2021/06/02 09:17:51;;;;;;;5.03;2.50;;;19.20;99.90;;;;;;5043963;28;20105;-72
2021/06/02 09:20:36;;;;;;;3.47;2.35;;;19.00;99.90;;;;;;5048239;28;20151;-72
2021/06/02 09:23:27;;;;;;;3.92;3.17;;;19.00;99.90;;;;;;5042833;28;20062;-73
2021/06/02 09:26:09;;;;;;;3.22;2.28;;;19.20;99.90;;;;;;5037188;28;20495;-72
2021/06/02 09:29:00;;;;;;;3.35;2.58;;;19.40;99.90;;;;;;5043788;28;20116;-73
2021/06/02 09:31:33;;;;;;;3.90;2.65;;;19.20;99.90;;;;;;5049166;28;20078;-72
2021/06/02 09:34:00;;;;;;;3.03;2.13;;;19.10;99.90;;;;;;5041871;28;20080;-72
2021/06/02 09:36:37;;;;;;;3.20;2.05;;;19.10;99.90;;;;;;5044143;28;20097;-77
2021/06/02 09:39:05;;;;;;;4.65;2.72;;;19.20;99.90;;;;;;5029589;28;20184;-73
2021/06/02 09:41:40;;;;;;;4.35;2.83;;;19.30;99.90;;;;;;5044542;28;20156;-73
2021/06/02 09:44:20;;;;;;;3.92;2.65;;;19.30;99.90;;;;;;5037161;28;20095;-75
2021/06/02 09:47:05;;;;;;;4.65;3.35;;;19.50;99.90;;;;;;5029178;28;20163;-73
2021/06/02 09:49:56;;;;;;;3.97;3.13;;;19.50;99.90;;;;;;5028444;28;20081;-73
2021/06/02 09:52:40;;;;;;;5.28;2.50;;;19.70;99.90;;;;;;5030433;28;20474;-75
2021/06/02 09:55:28;;;;;;;3.85;2.45;;;19.60;99.90;;;;;;5035641;28;20537;-75
2021/06/02 09:57:57;;;;;;;3.75;2.22;;;19.50;98.20;;;;;;5028162;28;20128;-74
2021/06/02 10:00:24;;;;;;;2.90;2.10;;;19.50;98.50;;;;;;5048094;28;20072;-74
2021/06/02 10:02:58;;;;;;;5.65;2.30;;;19.50;97.70;;;;;;5042875;28;20161;-74
2021/06/02 10:05:32;;;;;;;4.60;2.72;;;19.70;98.90;;;;;;5039542;28;20073;-74
2021/06/02 10:07:58;;;;;;;7.47;2.80;;;19.80;97.70;;;;;;5035906;28;20097;-73
2021/06/02 10:10:25;;;;;;;3.58;2.70;;;19.70;97.80;;;;;;5027121;28;20390;-73
2021/06/02 10:13:18;;;;;;;4.10;3.30;;;19.80;98.20;;;;;;5030568;28;20164;-73
2021/06/02 10:15:54;;;;;;;4.50;3.08;;;20.10;99.90;;;;;;5023981;28;20165;-72
2021/06/02 10:18:28;;;;;;;3.97;2.85;;;20.20;99.90;;;;;;5028649;28;20481;-73
2021/06/02 10:21:01;;;;;;;5.80;3.20;;;20.10;99.90;;;;;;5028890;28;20449;-73
2021/06/02 10:23:30;;;;;;;10.63;3.25;;;20.20;98.60;;;;;;5030811;28;20074;-73
2021/06/02 10:25:57;;;;;;;3.95;2.60;;;20.20;98.10;;;;;;5027286;28;20098;-72
2021/06/02 10:28:24;;;;;;;5.65;3.35;;;20.30;97.50;;;;;;5033354;28;20183;-73
2021/06/02 10:30:53;;;;;;;3.33;2.72;;;20.60;99.20;;;;;;5043820;28;20093;-74
2021/06/02 10:33:19;;;;;;;3.45;2.40;;;20.60;97.40;;;;;;5028521;28;20090;-74
2021/06/02 10:35:45;;;;;;;5.10;2.95;;;20.40;96.70;;;;;;5029812;28;20086;-75
2021/06/02 10:38:12;;;;;;;3.75;2.40;;;20.40;95.60;;;;;;5032584;28;20106;-73
2021/06/02 10:40:40;;;;;;;3.15;2.50;;;20.40;99.00;;;;;;5028461;28;20235;-75
2021/06/02 10:43:19;;;;;;;3.65;2.03;;;20.50;96.60;;;;;;5027866;28;20078;-73
2021/06/02 10:45:50;;;;;;;4.00;2.00;;;20.60;96.60;;;;;;5027541;28;20505;-73
2021/06/02 10:48:35;;;;;;;4.60;2.30;;;20.70;95.70;;;;;;5030980;28;20109;-73
2021/06/02 10:51:01;;;;;;;2.95;2.17;;;20.70;94.80;;;;;;5034286;28;20138;-75
2021/06/02 10:53:28;;;;;;;3.67;2.53;;;20.70;94.70;;;;;;5022493;28;20207;-73
2021/06/02 10:55:58;;;;;;;6.82;3.10;;;20.60;94.80;;;;;;5045054;28;20077;-74
2021/06/02 10:58:28;;;;;;;7.00;2.50;;;20.70;96.60;;;;;;5036457;28;20102;-74
2021/06/02 11:01:06;;;;;;;3.55;2.50;;;20.90;95.30;;;;;;5036316;28;20449;-74
2021/06/02 11:03:32;;;;;;;4.78;3.38;;;20.80;95.70;;;;;;5033102;28;20127;-74
2021/06/02 11:06:18;;;;;;;6.50;3.10;;;20.80;95.70;;;;;;5034679;28;20104;-75
2021/06/02 11:08:53;;;;;;;4.20;3.72;;;20.90;96.10;;;;;;4999751;28;20127;-74
2021/06/02 11:11:19;;;;;;;4.28;3.10;;;21.00;96.40;;;;;;5028628;28;20112;-73
2021/06/02 11:14:13;;;;;;;5.50;3.10;;;21.20;96.50;;;;;;5043519;28;20082;-73
2021/06/02 11:16:56;;;;;;;8.45;3.13;;;21.20;99.90;;;;;;5036037;28;20112;-73
2021/06/02 11:19:24;;;;;;;4.00;2.95;;;21.20;95.80;;;;;;5033564;28;20097;-73
2021/06/02 11:21:55;;;;;;;4.38;3.42;;;20.90;94.50;;;;;;5037092;28;20070;-73
2021/06/02 11:24:33;;;;;;;6.38;3.30;;;21.20;94.90;;;;;;5038938;28;20886;-73
2021/06/02 11:27:11;;;;;;;3.55;3.25;;;21.10;95.60;;;;;;5024684;28;20081;-73
2021/06/02 11:29:51;;;;;;;6.43;3.70;;;21.20;95.20;;;;;;5041553;28;20139;-74
2021/06/02 11:32:33;;;;;;;4.78;3.78;;;21.20;96.00;;;;;;5032767;28;20081;-73
2021/06/02 11:35:06;;;;;;;4.55;3.85;;;21.30;95.10;;;;;;5035676;28;20082;-73
2021/06/02 11:37:34;;;;;;;6.28;3.80;;;21.30;94.80;;;;;;5026781;28;20173;-74
2021/06/02 11:40:00;;;;;;;4.22;3.55;;;21.20;93.90;;;;;;5037349;28;20160;-74
2021/06/02 11:42:33;;;;;;;3.22;2.88;;;21.30;93.70;;;;;;5038042;28;20070;-75
2021/06/02 11:45:08;;;;;;;6.80;3.03;;;21.40;92.60;;;;;;5030262;28;20082;-74
2021/06/02 11:47:34;;;;;;;;;;;21.30;92.80;;;;;;5032995;28;20097;-74
2021/06/02 11:50:08;;;;;;;4.57;3.13;;;21.40;93.10;;;;;;5034173;28;19988;-74
2021/06/02 11:52:34;;;;;;;;;;;21.60;92.50;;;;;;5014308;28;20081;-75
2021/06/02 11:55:05;;;;;;;3.67;2.78;;;21.70;95.20;;;;;;5032773;28;20044;-75
2021/06/02 11:57:32;;;;;;;4.72;3.00;;;21.70;94.10;;;;;;5032973;28;20081;-76
2021/06/02 12:00:00;;;;;;;8.75;3.78;;;22.10;96.00;;;;;;5043681;28;20098;-75
2021/06/02 12:02:26;;;;;;;5.50;3.28;;;21.80;92.40;;;;;;5037619;28;20092;-74
2021/06/02 12:04:51;;;;;;;4.47;3.10;;;21.60;92.40;;;;;;5030816;28;20454;-74
2021/06/02 12:07:28;;;;;;;5.95;3.17;;;21.70;91.10;;;;;;5012876;28;20085;-74
2021/06/02 12:09:55;;;;;;;6.25;2.92;;;21.70;92.30;;;;;;5029638;28;20086;-75
2021/06/02 12:12:22;;;;;;;5.72;2.80;;;21.70;92.30;;;;;;5031681;28;20089;-75
2021/06/02 12:14:52;;;;;;;4.13;3.33;;;21.60;91.60;;;;;;5034925;28;20081;-75
2021/06/02 12:17:18;;;;;;;3.60;2.55;;;21.70;91.20;;;;;;5040183;28;20085;-75
2021/06/02 12:19:46;;;;;;;5.50;2.42;;;21.70;90.50;;;;;;5045079;28;20150;-75
2021/06/02 12:22:14;;;;;;;6.50;3.20;;;21.80;92.10;;;;;;5044376;28;20073;-75
2021/06/02 12:24:40;;;;;;;5.68;2.60;;;21.90;91.30;;;;;;5027430;28;20074;-75
2021/06/02 12:27:12;;;;;;;5.47;2.95;;;21.90;91.60;;;;;;5046420;28;20088;-75
2021/06/02 12:29:38;;;;;;;6.10;3.40;;;22.00;91.60;;;;;;5043068;28;20109;-75
2021/06/02 12:32:04;;;;;;;4.38;2.53;;;22.10;93.40;;;;;;5040841;28;20080;-74
2021/06/02 12:34:33;;;;;;;6.03;2.80;;;22.40;93.90;;;;;;5031632;28;20084;-73
2021/06/02 12:37:07;;;;;;;5.20;2.70;;;22.00;88.00;;;;;;5035183;28;20094;-74
2021/06/02 12:39:33;;;;;;;4.13;1.90;;;21.80;90.30;;;;;;5030012;28;20090;-73
2021/06/02 12:42:04;;;;;;;4.10;1.98;;;22.00;88.80;;;;;;5034877;28;20078;-82
2021/06/02 12:44:37;;;;;;;3.63;1.60;;;22.00;90.80;;;;;;5013216;28;20500;-74
2021/06/02 12:47:07;;;;;;;2.85;2.33;;;22.30;92.10;;;;;;5029639;28;20077;-74
2021/06/02 12:49:33;;;;;;;3.20;2.03;;;22.30;91.00;;;;;;5027430;28;20251;-74
2021/06/02 12:52:00;;;;;;;4.13;2.38;;;22.20;90.60;;;;;;5031105;28;20593;-74
2021/06/02 12:54:28;;;;;;;3.78;2.10;;;22.30;87.20;;;;;;5032577;28;20089;-73
2021/06/02 12:56:53;;;;;;;4.18;2.10;;;22.20;84.30;;;;;;5028153;28;20116;-74
2021/06/02 12:59:20;;;;;;;6.50;2.50;;;22.20;84.00;;;;;;5022986;28;20086;-73
2021/06/02 13:01:46;;;;;;;3.78;2.22;;;22.30;85.60;;;;;;5038768;28;20074;-73
2021/06/02 13:04:16;;;;;;;3.45;2.00;;;22.40;86.40;;;;;;5036969;28;21348;-73
2021/06/02 13:06:51;;;;;;;2.30;1.73;;;22.40;81.90;;;;;;5034331;28;20073;-73
2021/06/02 13:09:20;;;;;;;3.65;2.10;;;22.40;81.80;;;;;;5034974;28;20138;-73
2021/06/02 13:11:46;;;;;;;3.05;1.50;;;22.30;77.60;;;;;;5031320;28;20081;-73
2021/06/02 13:14:12;;;;;;;3.38;1.70;;;22.20;76.70;;;;;;5030601;28;20088;-73
2021/06/02 13:16:48;;;;;;;4.72;1.67;;;22.20;74.30;;;;;;5027583;28;20141;-73
2021/06/02 13:19:14;;;;;;;2.92;1.58;;;22.20;77.70;;;;;;5029765;28;20082;-73
2021/06/02 13:21:49;;;;;;;3.08;1.55;;;22.40;80.30;;;;;;5037131;28;20080;-76
2021/06/02 13:24:17;;;;;;;5.57;1.70;;;22.40;69.40;;;;;;5041104;28;20069;-74
2021/06/02 13:26:54;;;;;;;2.90;1.60;;;22.30;71.70;;;;;;5037947;28;20168;-79
2021/06/02 13:29:20;;;;;;;2.33;1.70;;;22.50;78.70;;;;;;5037639;28;20089;-76
2021/06/02 13:31:50;;;;;;;2.35;1.77;;;22.50;76.00;;;;;;5034724;28;20090;-77
2021/06/02 13:34:36;;;;;;;4.03;2.00;;;22.40;77.90;;;;;;5034883;28;20205;-76